メインページ
METAR-TAF:

METAR-TAF

空港 :

リンデン・ピンドリング国際空港

ナッソー, バハマ

緯度: 25-03N, 経度: 077-28W, 海抜: 3m

現時点の気象観測

当レポートは26分前の04:00(UTC)に作成
南/南東の風 10kt
気温 24°C
湿度 89%
気圧 1019 hPa
視程10km以上
高度3000ftの雲はほとんどない
高度20000ftの雲は散在している

METAR: MYNN 150400Z 16010KT 9999 FEW030 SCT200 24/22 A3010

時間: 23:26 (04:26 UTC)

予報

当レポートは5時間41分前の22:45(UTC)に作成
予報は15日の 00時(UTC)から 16日の 00時(UTC)まで有効
南/南東の風 8kt
視程10km以上
高度2500ftの雲はほとんどない
高度20000ftの千切れ雲あり
15日の 1200時(UTC)から
南/南東の風 14kt
視程10km以上
高度2500ftの雲は散在している
確率 40% :
15日の 18時(UTC)から 16日の 00時(UTC)まで一時的に
南/南東の風 15kt
視程: 8000m
高度1500ftの雲は散在している, 積乱雲.
高度1500ftの千切れ雲あり
高度4000ftの千切れ雲あり
にわか雨

TAF: MYNN 142245Z 1500/1600 15008KT 9999 FEW025 BKN200 FM151200 15014KT 9999 SCT025 PROB40 TEMPO 1518/1600 16015KT 8000 SHRA SCT015CB BKN015 BKN040

4,000以上の空港の気象観測と天気予報(METAR報とTAF報)

利用可能な観測所は地図上に黄色い丸と赤い丸で示す。

丸の上にカーソルを重ねると観測所名を参照できる。

次にクリックすると気象観測と天気予報を参照できる。

マップの切り替え:黒色「×」印の緑ボタンをクリックして拡大、「-」印の緑ボタンをクリックして縮小、緑色の三角印をクリックして隣りの地図に切り替え


METAR-TAF: